Time;durP1;ratioP1;P1;durP2;ratioP2;P2;SDS_P1;SDS_P2;PMS_P1;PMS_P2;Temp;Humidity;BMP_temperature;BMP_pressure;BME280_temperature;BME280_humidity;BME280_pressure;Samples;Min_cycle;Max_cycle;Signal;HPM_P1;HPM_P2
2022/01/13 00:00:13;;;;;;;36.70;25.98;;;0.50;96.40;;;;;;5072977;28;20043;-73
2022/01/13 00:02:39;;;;;;;39.58;26.52;;;0.40;96.50;;;;;;5073125;28;20035;-74
2022/01/13 00:05:05;;;;;;;41.70;26.60;;;0.40;96.60;;;;;;5072569;28;20465;-73
2022/01/13 00:07:31;;;;;;;40.58;26.88;;;0.40;96.60;;;;;;5073110;28;20024;-74
2022/01/13 00:09:57;;;;;;;40.75;26.92;;;0.40;96.60;;;;;;5071468;28;20040;-73
2022/01/13 00:12:27;;;;;;;39.47;25.13;;;0.40;96.60;;;;;;5072889;28;20027;-74
2022/01/13 00:17:56;;;;;;;40.85;26.67;;;0.30;96.70;;;;;;5057224;28;20373;-73
2022/01/13 00:23:40;;;;;;;37.85;25.55;;;0.30;96.70;;;;;;5072223;28;20039;-73
2022/01/13 00:25:38;;;;;;;42.95;26.08;;;0.30;96.80;;;;;;5072121;28;20024;-73
2022/01/13 00:28:13;;;;;;;40.35;27.33;;;0.30;96.80;;;;;;5072170;28;20032;-74
2022/01/13 00:30:39;;;;;;;43.22;26.80;;;0.30;96.80;;;;;;5072282;28;20488;-73
2022/01/13 00:33:05;;;;;;;40.28;25.88;;;0.20;96.90;;;;;;5072057;28;20104;-74
2022/01/13 00:35:31;;;;;;;41.20;27.90;;;0.20;96.90;;;;;;5072397;28;20028;-73
2022/01/13 00:37:56;;;;;;;41.38;26.38;;;0.20;96.90;;;;;;5071714;28;20032;-73
2022/01/13 00:40:22;;;;;;;42.60;26.58;;;0.20;96.90;;;;;;5072333;28;20028;-74
2022/01/13 00:42:48;;;;;;;42.10;27.42;;;0.20;97.00;;;;;;5072544;28;20020;-73
2022/01/13 00:45:14;;;;;;;41.33;25.88;;;0.20;97.10;;;;;;5071769;28;20069;-74
2022/01/13 00:47:41;;;;;;;45.17;27.50;;;0.20;97.00;;;;;;5072279;28;20466;-73
2022/01/13 00:50:07;;;;;;;41.03;26.02;;;0.10;97.00;;;;;;5071799;28;20036;-73
2022/01/13 00:52:33;;;;;;;42.03;27.50;;;0.10;97.00;;;;;;5054372;28;20028;-74
2022/01/13 00:55:03;;;;;;;40.30;26.88;;;0.10;97.00;;;;;;5071520;28;20066;-73
2022/01/13 00:57:31;;;;;;;42.25;27.52;;;0.20;97.00;;;;;;5072375;28;20028;-73
2022/01/13 00:59:57;;;;;;;41.70;27.25;;;0.10;96.90;;;;;;5071782;28;20032;-73
2022/01/13 01:02:23;;;;;;;44.15;28.52;;;0.10;97.00;;;;;;5072221;28;20488;-73
2022/01/13 01:04:49;;;;;;;42.20;27.23;;;0.10;97.00;;;;;;5072241;28;20028;-73
2022/01/13 01:07:14;;;;;;;45.75;28.52;;;0.10;97.10;;;;;;5071758;28;20031;-73
2022/01/13 01:09:47;;;;;;;43.63;29.02;;;0.10;97.20;;;;;;5071744;28;20028;-73
2022/01/13 01:12:13;;;;;;;43.40;28.95;;;0.10;97.20;;;;;;5071842;28;20036;-73
2022/01/13 01:14:45;;;;;;;44.05;27.48;;;0.10;97.30;;;;;;5072093;28;20461;-73
2022/01/13 01:17:15;;;;;;;44.25;28.75;;;0.10;97.30;;;;;;5071623;28;20024;-73
2022/01/13 01:19:44;;;;;;;44.72;27.90;;;0.10;97.50;;;;;;5072108;28;20024;-73
2022/01/13 01:27:40;;;;;;;;;;;0.10;97.30;;;;;;5076599;28;20116;-73
2022/01/13 01:30:21;;;;;;;50.20;28.60;;;0.10;97.20;;;;;;5075626;28;19912;-74
2022/01/13 01:32:47;;;;;;;47.65;29.70;;;0.10;97.20;;;;;;5075991;28;20268;-74
2022/01/13 01:35:14;;;;;;;49.13;29.95;;;0.10;97.20;;;;;;5075012;28;20723;-72
2022/01/13 01:37:41;;;;;;;49.15;31.30;;;0.10;97.20;;;;;;5075586;28;20067;-73
2022/01/13 01:40:09;;;;;;;47.42;31.05;;;0.20;97.20;;;;;;5075601;28;20032;-73
2022/01/13 01:42:35;;;;;;;44.58;28.05;;;0.20;97.20;;;;;;5075508;28;20021;-73
2022/01/13 01:45:01;;;;;;;47.40;30.48;;;0.20;97.20;;;;;;5075198;28;20035;-73
2022/01/13 01:47:29;;;;;;;48.15;31.45;;;0.20;97.00;;;;;;5075750;28;20032;-74
2022/01/13 01:49:59;;;;;;;49.13;30.92;;;0.20;97.00;;;;;;5075364;28;20035;-67
2022/01/13 01:52:27;;;;;;;48.35;30.02;;;0.20;97.00;;;;;;5075595;28;20381;-73
2022/01/13 01:54:53;;;;;;;47.42;29.83;;;0.20;96.90;;;;;;5075407;28;20048;-74
2022/01/13 01:57:21;;;;;;;49.15;31.58;;;0.20;96.90;;;;;;5057165;28;20025;-73
2022/01/13 01:59:46;;;;;;;46.78;30.25;;;0.20;96.90;;;;;;5075298;28;20063;-74
2022/01/13 02:02:14;;;;;;;49.33;29.70;;;0.20;96.80;;;;;;5074632;28;20029;-73
2022/01/13 02:04:40;;;;;;;49.33;31.58;;;0.20;96.90;;;;;;5075427;28;20055;-74
2022/01/13 02:07:07;;;;;;;46.45;29.77;;;0.30;96.90;;;;;;5074914;28;20028;-73
2022/01/13 02:09:36;;;;;;;49.80;31.25;;;0.20;96.80;;;;;;5075343;28;20025;-74
2022/01/13 02:12:09;;;;;;;50.67;30.75;;;0.20;96.80;;;;;;5074672;28;20028;-74
2022/01/13 02:14:48;;;;;;;47.65;29.92;;;0.30;96.70;;;;;;5075288;28;20085;-74
2022/01/13 02:17:22;;;;;;;45.92;29.27;;;0.30;96.70;;;;;;5074787;28;20021;-74
2022/01/13 02:19:50;;;;;;;46.53;29.77;;;0.30;96.60;;;;;;5075201;28;20040;-73
2022/01/13 02:22:16;;;;;;;45.80;30.30;;;0.20;96.60;;;;;;5074534;28;20078;-74
2022/01/13 02:24:41;;;;;;;44.83;29.38;;;0.20;96.60;;;;;;5075247;28;20021;-74
2022/01/13 02:27:08;;;;;;;48.70;31.20;;;0.30;96.70;;;;;;5074159;28;20154;-74
2022/01/13 02:29:34;;;;;;;51.50;31.05;;;0.30;96.60;;;;;;5075009;28;20024;-73
2022/01/13 02:32:01;;;;;;;48.75;30.40;;;0.20;96.60;;;;;;5073916;28;20483;-73
2022/01/13 02:34:27;;;;;;;50.53;32.00;;;0.30;96.70;;;;;;5074256;28;20114;-73
2022/01/13 02:36:54;;;;;;;47.88;30.73;;;0.30;96.70;;;;;;5074612;28;20473;-73
2022/01/13 02:39:24;;;;;;;50.97;31.50;;;0.30;96.70;;;;;;5074553;28;20047;-73
2022/01/13 02:41:50;;;;;;;46.78;30.40;;;0.30;96.60;;;;;;5074773;28;20029;-74
2022/01/13 02:44:19;;;;;;;44.30;29.10;;;0.30;96.60;;;;;;5074218;28;20032;-73
2022/01/13 02:49:16;;;;;;;51.38;30.85;;;0.30;96.70;;;;;;5074068;28;20354;-73
2022/01/13 02:51:43;;;;;;;50.03;30.52;;;0.30;96.60;;;;;;5074249;28;20036;-72
2022/01/13 02:54:10;;;;;;;50.08;32.28;;;0.30;96.50;;;;;;5073824;28;20029;-72
2022/01/13 02:56:36;;;;;;;49.55;30.83;;;0.30;96.50;;;;;;5074251;28;20078;-74
2022/01/13 02:59:03;;;;;;;48.38;30.48;;;0.30;96.50;;;;;;5074018;28;20044;-73
2022/01/13 03:01:29;;;;;;;47.60;31.05;;;0.30;96.40;;;;;;5074753;28;20064;-73
2022/01/13 03:03:54;;;;;;;46.67;30.15;;;0.40;96.40;;;;;;5074365;28;20048;-73
2022/01/13 03:06:28;;;;;;;49.92;31.67;;;0.40;96.30;;;;;;5073852;28;20025;-73
2022/01/13 03:08:53;;;;;;;45.03;29.23;;;0.30;96.30;;;;;;5074225;28;20082;-73
2022/01/13 03:11:22;;;;;;;49.80;31.45;;;0.40;96.20;;;;;;5073759;28;20033;-74
2022/01/13 03:13:48;;;;;;;48.00;30.80;;;0.40;96.20;;;;;;5074183;28;20032;-73
2022/01/13 03:16:14;;;;;;;52.42;31.45;;;0.40;96.10;;;;;;5055578;28;20526;-73
2022/01/13 03:18:40;;;;;;;49.88;30.50;;;0.40;96.10;;;;;;5073706;28;20426;-73
2022/01/13 03:21:07;;;;;;;47.22;31.35;;;0.40;96.00;;;;;;5073194;28;20071;-72
2022/01/13 03:23:36;;;;;;;49.40;31.70;;;0.40;95.90;;;;;;5073962;28;20425;-73
2022/01/13 03:26:03;;;;;;;49.40;30.38;;;0.40;96.10;;;;;;5073421;28;20055;-74
2022/01/13 03:28:40;;;;;;;47.78;30.92;;;0.30;96.00;;;;;;5073860;28;20024;-72
2022/01/13 03:31:07;;;;;;;48.88;30.33;;;0.30;96.10;;;;;;5072976;28;20040;-72
2022/01/13 03:33:34;;;;;;;47.97;30.63;;;0.30;96.20;;;;;;5073904;28;20032;-72
2022/01/13 03:36:02;;;;;;;47.75;30.67;;;0.30;96.40;;;;;;5073702;28;20021;-73
2022/01/13 03:38:28;;;;;;;47.92;29.73;;;0.30;96.30;;;;;;5073607;28;20024;-74
2022/01/13 03:40:53;;;;;;;49.45;31.58;;;0.30;96.30;;;;;;5055600;28;20039;-73
2022/01/13 03:43:19;;;;;;;49.55;30.90;;;0.30;96.30;;;;;;5073020;28;20091;-73
2022/01/13 03:45:46;;;;;;;49.42;30.60;;;0.30;96.30;;;;;;5055345;28;20059;-73
2022/01/13 03:48:13;;;;;;;50.58;31.10;;;0.30;96.20;;;;;;5072912;28;20028;-73
2022/01/13 03:50:40;;;;;;;48.00;29.02;;;0.40;96.20;;;;;;5073106;28;20484;-73
2022/01/13 03:53:25;;;;;;;48.88;29.88;;;0.40;96.30;;;;;;5072846;28;20104;-72
2022/01/13 03:56:38;;;;;;;46.85;29.15;;;0.40;96.30;;;;;;5073467;28;20049;-73
2022/01/13 03:59:34;;;;;;;43.85;28.85;;;0.40;96.20;;;;;;5026121;28;20068;-70
2022/01/13 04:02:08;;;;;;;48.05;29.92;;;0.40;96.10;;;;;;5072952;28;20504;-73
2022/01/13 04:04:39;;;;;;;45.78;28.98;;;0.40;96.20;;;;;;5073230;28;20021;-73
2022/01/13 04:07:08;;;;;;;49.13;30.92;;;0.50;96.20;;;;;;5072636;28;20027;-72
2022/01/13 04:09:34;;;;;;;51.80;31.23;;;0.50;96.20;;;;;;5073052;28;20415;-73
2022/01/13 04:12:04;;;;;;;47.17;30.92;;;0.50;96.20;;;;;;5072699;28;20135;-73
2022/01/13 04:14:37;;;;;;;48.20;29.45;;;0.50;96.10;;;;;;5072633;28;20024;-73
2022/01/13 04:17:03;;;;;;;48.65;29.85;;;0.50;96.10;;;;;;5073024;28;20364;-73
2022/01/13 04:19:29;;;;;;;49.92;30.23;;;0.50;96.10;;;;;;5054154;28;20028;-73
2022/01/13 04:21:55;;;;;;;46.13;28.83;;;0.50;95.90;;;;;;5072702;28;20031;-73
2022/01/13 04:24:21;;;;;;;49.25;30.77;;;0.50;95.80;;;;;;5072231;28;20035;-72
2022/01/13 04:26:46;;;;;;;45.85;29.17;;;0.50;95.80;;;;;;5072854;28;20346;-73
2022/01/13 04:31:40;;;;;;;44.03;28.88;;;0.50;95.60;;;;;;5072582;28;20454;-73
2022/01/13 04:34:06;;;;;;;44.25;28.58;;;0.60;95.60;;;;;;5054334;28;20124;-74
2022/01/13 04:36:32;;;;;;;48.38;30.33;;;0.60;95.60;;;;;;5072851;28;20347;-73
2022/01/13 04:38:57;;;;;;;47.92;28.40;;;0.60;95.40;;;;;;5054579;28;20476;-74
2022/01/13 04:41:34;;;;;;;45.78;29.13;;;0.60;95.40;;;;;;5072063;28;20116;-73
2022/01/13 04:44:00;;;;;;;43.78;28.33;;;0.60;95.30;;;;;;5072485;28;20040;-73
2022/01/13 04:46:26;;;;;;;43.33;27.15;;;0.60;95.30;;;;;;5071704;28;20047;-73
2022/01/13 04:48:51;;;;;;;44.17;28.20;;;0.60;95.20;;;;;;5072421;28;20025;-73
2022/01/13 04:51:17;;;;;;;47.50;30.27;;;0.60;95.10;;;;;;5071379;28;20093;-74
2022/01/13 04:53:43;;;;;;;48.72;29.23;;;0.60;95.00;;;;;;5072115;28;20029;-73
2022/01/13 04:56:13;;;;;;;47.53;29.25;;;0.60;95.00;;;;;;5070905;28;20049;-72
2022/01/13 04:58:38;;;;;;;44.67;28.70;;;0.60;95.10;;;;;;5072449;28;20046;-74
2022/01/13 05:01:04;;;;;;;44.92;28.55;;;0.70;95.10;;;;;;5072309;28;20103;-75
2022/01/13 05:03:30;;;;;;;43.13;28.27;;;0.70;95.00;;;;;;5071589;28;20079;-74
2022/01/13 05:05:56;;;;;;;44.55;28.52;;;0.70;94.80;;;;;;5072120;28;20086;-72
2022/01/13 05:08:22;;;;;;;48.13;29.65;;;0.70;94.70;;;;;;5071142;28;20457;-74
2022/01/13 05:10:47;;;;;;;44.45;28.80;;;0.70;94.60;;;;;;5072191;28;20112;-73
2022/01/13 05:13:13;;;;;;;43.40;28.27;;;0.70;94.50;;;;;;5071313;28;20377;-73
2022/01/13 05:15:42;;;;;;;48.53;30.35;;;0.70;94.40;;;;;;5072030;28;20027;-73
2022/01/13 05:20:47;;;;;;;45.78;27.73;;;0.70;94.20;;;;;;5072107;28;20451;-74
2022/01/13 05:23:13;;;;;;;44.17;28.83;;;0.70;94.30;;;;;;5071600;28;20027;-72
2022/01/13 05:25:40;;;;;;;44.50;28.67;;;0.70;94.20;;;;;;5071790;28;20111;-73
2022/01/13 05:28:06;;;;;;;45.13;29.05;;;0.70;94.40;;;;;;5071970;28;20032;-73
2022/01/13 05:30:31;;;;;;;45.90;28.67;;;0.70;94.20;;;;;;5071422;28;20028;-72
2022/01/13 05:32:57;;;;;;;46.15;28.48;;;0.70;94.30;;;;;;5053943;28;20035;-73
2022/01/13 05:35:24;;;;;;;44.78;28.15;;;0.70;94.30;;;;;;5071437;28;20025;-73
2022/01/13 05:37:50;;;;;;;48.42;29.08;;;0.70;94.20;;;;;;5071835;28;20064;-73
2022/01/13 05:40:16;;;;;;;46.55;29.30;;;0.70;94.20;;;;;;5071328;28;20075;-72
2022/01/13 05:42:42;;;;;;;50.42;30.70;;;0.70;94.10;;;;;;5071779;28;20572;-73
2022/01/13 05:45:15;;;;;;;46.78;29.73;;;0.70;94.10;;;;;;5053704;28;20040;-73
2022/01/13 05:47:41;;;;;;;47.42;29.83;;;0.70;93.90;;;;;;5071603;28;20489;-73
2022/01/13 05:50:09;;;;;;;48.65;30.10;;;0.60;93.90;;;;;;5071666;28;20025;-73
2022/01/13 05:52:35;;;;;;;49.60;30.45;;;0.60;93.90;;;;;;5071130;28;20029;-72
2022/01/13 05:55:03;;;;;;;46.05;29.83;;;0.70;94.00;;;;;;5070629;28;20135;-74
2022/01/13 05:57:29;;;;;;;52.47;31.67;;;0.60;94.20;;;;;;5053172;28;20051;-73
2022/01/13 05:59:54;;;;;;;46.60;29.48;;;0.60;94.20;;;;;;5071694;28;20462;-74
2022/01/13 06:02:20;;;;;;;46.03;28.60;;;0.60;94.20;;;;;;5070726;28;20032;-73
2022/01/13 06:04:46;;;;;;;49.75;30.25;;;0.60;94.30;;;;;;5071736;28;20036;-73
2022/01/13 06:07:11;;;;;;;49.95;31.55;;;0.60;94.20;;;;;;5071552;28;20523;-73
2022/01/13 06:09:37;;;;;;;48.85;31.33;;;0.60;94.30;;;;;;5074292;28;20048;-73
2022/01/13 06:12:03;;;;;;;49.47;31.77;;;0.60;94.30;;;;;;5075085;28;20043;-74
2022/01/13 06:14:29;;;;;;;48.55;29.70;;;0.60;94.50;;;;;;5074631;28;20020;-73
2022/01/13 06:16:55;;;;;;;49.10;30.90;;;0.60;94.30;;;;;;5075158;28;20055;-74
2022/01/13 06:19:21;;;;;;;51.97;30.88;;;0.60;94.20;;;;;;5074526;28;20052;-73
2022/01/13 06:21:47;;;;;;;49.50;31.73;;;0.60;94.20;;;;;;5074838;28;20028;-73
2022/01/13 06:24:13;;;;;;;50.55;32.22;;;0.60;94.20;;;;;;5075055;28;20119;-74
2022/01/13 06:26:39;;;;;;;50.92;31.67;;;0.60;94.20;;;;;;5074927;28;20480;-74
2022/01/13 06:29:05;;;;;;;55.83;32.65;;;0.60;94.50;;;;;;5074894;28;20311;-74
2022/01/13 06:31:31;;;;;;;51.15;31.80;;;0.60;94.40;;;;;;5074127;28;20032;-73
2022/01/13 06:33:56;;;;;;;53.95;31.13;;;0.70;94.40;;;;;;5074760;28;20047;-74
2022/01/13 06:36:22;;;;;;;51.88;31.85;;;0.70;94.40;;;;;;5074283;28;20027;-73
2022/01/13 06:38:49;;;;;;;52.35;31.10;;;0.70;94.40;;;;;;5074730;28;20103;-73
2022/01/13 06:41:16;;;;;;;56.42;32.33;;;0.70;94.60;;;;;;5074399;28;20040;-70
2022/01/13 06:43:42;;;;;;;50.55;30.48;;;0.70;94.60;;;;;;5074694;28;20025;-74
2022/01/13 06:46:07;;;;;;;53.60;32.85;;;0.70;94.60;;;;;;5074258;28;20415;-74
2022/01/13 06:48:33;;;;;;;52.80;32.15;;;0.70;94.50;;;;;;5074046;28;20400;-75
2022/01/13 06:50:59;;;;;;;50.20;31.05;;;0.70;94.50;;;;;;5074255;28;20086;-74
2022/01/13 06:53:25;;;;;;;50.05;33.13;;;0.70;94.50;;;;;;5074219;28;20024;-74
2022/01/13 06:55:51;;;;;;;50.88;32.97;;;0.80;94.50;;;;;;5074370;28;20098;-74
2022/01/13 06:58:17;;;;;;;52.78;31.92;;;0.80;94.50;;;;;;5073516;28;20496;-72
2022/01/13 07:00:43;;;;;;;56.13;34.08;;;0.80;94.60;;;;;;5074318;28;20037;-74
2022/01/13 07:03:09;;;;;;;53.63;33.10;;;0.80;94.60;;;;;;5074109;28;20487;-73
2022/01/13 07:05:35;;;;;;;49.70;31.50;;;0.80;94.60;;;;;;5055729;28;20024;-74
2022/01/13 07:08:02;;;;;;;51.13;32.70;;;0.80;94.60;;;;;;5074469;28;20100;-74
2022/01/13 07:10:28;;;;;;;57.67;32.22;;;0.80;94.50;;;;;;5073516;28;20036;-73
2022/01/13 07:12:54;;;;;;;53.33;33.55;;;0.80;94.50;;;;;;5073811;28;20082;-74
2022/01/13 07:15:20;;;;;;;58.25;33.78;;;0.90;94.60;;;;;;5073416;28;20044;-73
2022/01/13 07:17:46;;;;;;;54.15;33.80;;;0.90;94.60;;;;;;5073872;28;20024;-74
2022/01/13 07:20:12;;;;;;;53.35;32.88;;;0.90;94.60;;;;;;5073477;28;20377;-75
2022/01/13 07:22:39;;;;;;;57.35;34.20;;;0.90;94.50;;;;;;5073309;28;20245;-73
2022/01/13 07:25:06;;;;;;;54.50;33.08;;;0.90;94.50;;;;;;5073635;28;20108;-74
2022/01/13 07:27:32;;;;;;;53.05;33.50;;;1.00;94.40;;;;;;5073049;28;20349;-74
2022/01/13 07:29:58;;;;;;;54.03;33.05;;;0.90;94.30;;;;;;5073396;28;20100;-74
2022/01/13 07:32:23;;;;;;;52.72;33.05;;;0.90;94.30;;;;;;5055170;28;20051;-73
2022/01/13 07:34:49;;;;;;;56.85;34.35;;;0.90;94.40;;;;;;5073692;28;20465;-74
2022/01/13 07:37:15;;;;;;;55.35;33.65;;;0.90;94.40;;;;;;5073639;28;20046;-75
2022/01/13 07:39:41;;;;;;;54.60;33.60;;;0.90;94.50;;;;;;5073039;28;20024;-73
2022/01/13 07:42:07;;;;;;;57.90;34.47;;;0.90;94.40;;;;;;5073435;28;20083;-74
2022/01/13 07:44:32;;;;;;;54.40;33.95;;;1.00;94.40;;;;;;5072905;28;20027;-75
2022/01/13 07:47:00;;;;;;;58.70;34.92;;;1.00;94.30;;;;;;5073200;28;20025;-75
2022/01/13 07:49:27;;;;;;;57.70;34.05;;;1.00;94.30;;;;;;5054850;28;20405;-74
2022/01/13 07:51:52;;;;;;;60.45;35.50;;;1.00;94.40;;;;;;5073207;28;20036;-74
2022/01/13 07:54:18;;;;;;;56.88;33.03;;;1.00;94.20;;;;;;5054833;28;20047;-73
2022/01/13 07:56:44;;;;;;;54.50;33.78;;;1.00;94.10;;;;;;5072529;28;20028;-75
2022/01/13 07:59:10;;;;;;;50.92;33.15;;;1.00;94.10;;;;;;5072775;28;20036;-74
2022/01/13 08:01:35;;;;;;;53.38;31.80;;;1.10;93.80;;;;;;5072709;28;20029;-74
2022/01/13 08:04:01;;;;;;;53.45;32.40;;;1.10;93.60;;;;;;5072902;28;20021;-74
2022/01/13 08:06:27;;;;;;;57.65;32.50;;;1.10;93.40;;;;;;5072753;28;20106;-74
2022/01/13 08:08:52;;;;;;;51.78;31.70;;;1.10;93.20;;;;;;5073040;28;20105;-73
2022/01/13 08:11:18;;;;;;;50.60;31.05;;;1.10;93.20;;;;;;5072843;28;20028;-75
2022/01/13 08:13:45;;;;;;;48.00;30.45;;;1.10;93.20;;;;;;5072474;28;20385;-73
2022/01/13 08:16:11;;;;;;;52.50;32.15;;;1.10;93.20;;;;;;5072878;28;20043;-75
2022/01/13 08:21:23;;;;;;;49.58;30.08;;;1.10;92.90;;;;;;5072664;28;20040;-74
2022/01/13 08:23:50;;;;;;;47.78;29.48;;;1.10;92.80;;;;;;5072431;28;20034;-75
2022/01/13 08:26:16;;;;;;;49.70;30.50;;;1.10;92.80;;;;;;5072683;28;20111;-74
2022/01/13 08:28:42;;;;;;;45.22;29.13;;;1.10;92.80;;;;;;5072385;28;20031;-74
2022/01/13 08:31:07;;;;;;;46.55;29.10;;;1.10;93.00;;;;;;5071845;28;20337;-75
2022/01/13 08:33:33;;;;;;;46.15;28.95;;;1.20;92.90;;;;;;5072091;28;20028;-74
2022/01/13 08:35:59;;;;;;;46.63;28.65;;;1.20;92.80;;;;;;5072615;28;20394;-74
2022/01/13 08:38:25;;;;;;;43.63;27.58;;;1.20;92.50;;;;;;5071945;28;20464;-73
2022/01/13 08:40:59;;;;;;;44.42;27.67;;;1.30;92.50;;;;;;5072457;28;20114;-74
2022/01/13 08:43:26;;;;;;;38.47;26.00;;;1.30;92.30;;;;;;5072065;28;20024;-72
2022/01/13 08:45:52;;;;;;;43.60;27.08;;;1.30;91.80;;;;;;5072302;28;20465;-74
2022/01/13 08:48:19;;;;;;;42.08;26.17;;;1.30;91.70;;;;;;5072898;28;20033;-75
2022/01/13 08:50:46;;;;;;;38.78;25.48;;;1.30;91.70;;;;;;5071922;28;20028;-75
2022/01/13 08:53:15;;;;;;;40.42;26.15;;;1.30;91.60;;;;;;5054630;28;20458;-75
2022/01/13 08:55:40;;;;;;;40.10;24.02;;;1.40;91.40;;;;;;5071884;28;20040;-75
2022/01/13 08:58:06;;;;;;;41.63;24.50;;;1.40;91.20;;;;;;5072159;28;20473;-75
2022/01/13 09:00:33;;;;;;;36.22;24.15;;;1.50;91.10;;;;;;5071939;28;20036;-74
2022/01/13 09:03:00;;;;;;;32.55;22.52;;;1.50;90.80;;;;;;5072587;28;20031;-74
2022/01/13 09:05:26;;;;;;;35.65;23.85;;;1.50;90.60;;;;;;5071792;28;20444;-71
2022/01/13 09:07:52;;;;;;;35.00;22.00;;;1.60;90.60;;;;;;5072222;28;20048;-74
2022/01/13 09:10:17;;;;;;;36.35;23.20;;;1.60;90.40;;;;;;5071762;28;20047;-75
2022/01/13 09:12:44;;;;;;;34.70;22.17;;;1.70;90.10;;;;;;5071517;28;20021;-74
2022/01/13 09:15:31;;;;;;;33.15;20.83;;;1.70;90.10;;;;;;5072279;28;20052;-75
2022/01/13 09:17:59;;;;;;;33.83;21.75;;;1.70;89.60;;;;;;5072302;28;20036;-75
2022/01/13 09:20:25;;;;;;;31.63;20.90;;;1.80;88.90;;;;;;5072258;28;20033;-74
2022/01/13 09:22:51;;;;;;;33.67;22.30;;;1.80;88.50;;;;;;5071433;28;20021;-74
2022/01/13 09:25:16;;;;;;;32.67;21.08;;;1.90;88.40;;;;;;5072138;28;20120;-74
2022/01/13 09:27:42;;;;;;;31.70;21.10;;;1.90;88.10;;;;;;5071384;28;20025;-74
2022/01/13 09:30:12;;;;;;;37.08;21.92;;;2.00;88.10;;;;;;5054009;28;20031;-74
2022/01/13 09:32:38;;;;;;;30.67;20.05;;;2.00;87.10;;;;;;5071261;28;20040;-73
2022/01/13 09:35:05;;;;;;;32.15;20.25;;;2.10;86.10;;;;;;5072049;28;20458;-73
2022/01/13 09:37:32;;;;;;;32.03;19.55;;;2.10;85.90;;;;;;5071466;28;20048;-72
2022/01/13 09:39:58;;;;;;;29.23;18.83;;;2.20;85.40;;;;;;5072166;28;20017;-74
2022/01/13 09:42:26;;;;;;;28.00;18.20;;;2.30;83.90;;;;;;5073054;28;20142;-73
2022/01/13 09:44:57;;;;;;;28.52;18.20;;;2.30;82.90;;;;;;5075080;28;20353;-73
2022/01/13 09:47:23;;;;;;;30.27;18.13;;;2.40;82.60;;;;;;5075654;28;20377;-74
2022/01/13 09:49:50;;;;;;;26.40;16.75;;;2.50;81.20;;;;;;5075284;28;20036;-73
2022/01/13 09:52:16;;;;;;;26.20;17.08;;;2.50;80.40;;;;;;5075492;28;20086;-74
2022/01/13 09:54:42;;;;;;;26.23;17.17;;;2.60;80.10;;;;;;5074871;28;20041;-73
2022/01/13 09:57:08;;;;;;;26.40;17.08;;;2.60;79.80;;;;;;5075556;28;20032;-73
2022/01/13 09:59:34;;;;;;;25.33;16.50;;;2.70;79.10;;;;;;5075107;28;20025;-73
2022/01/13 10:02:00;;;;;;;26.77;16.35;;;2.80;78.50;;;;;;5075608;28;20430;-74
2022/01/13 10:04:56;;;;;;;25.83;16.58;;;2.90;78.20;;;;;;5075292;28;20031;-74
2022/01/13 10:07:44;;;;;;;25.42;14.50;;;3.00;77.10;;;;;;5075507;28;20025;-73
2022/01/13 10:10:19;;;;;;;21.80;14.20;;;3.10;76.20;;;;;;5075359;28;20021;-73
2022/01/13 10:12:47;;;;;;;22.55;14.32;;;3.20;75.40;;;;;;5074907;28;20074;-74
2022/01/13 10:17:59;;;;;;;21.80;13.95;;;3.30;74.50;;;;;;5075167;28;20035;-73
2022/01/13 10:20:25;;;;;;;23.60;14.13;;;3.50;74.10;;;;;;5075148;28;20393;-74
2022/01/13 10:22:52;;;;;;;20.00;13.32;;;3.60;73.60;;;;;;5074559;28;20056;-74
2022/01/13 10:25:38;;;;;;;19.27;13.77;;;3.70;73.00;;;;;;5074865;28;20423;-74
2022/01/13 10:28:18;;;;;;;20.40;12.95;;;3.80;72.10;;;;;;5075444;28;20021;-74
2022/01/13 10:30:49;;;;;;;18.67;12.95;;;3.90;71.10;;;;;;5074449;28;20029;-74
2022/01/13 10:33:27;;;;;;;20.35;13.48;;;4.00;70.70;;;;;;5075058;28;20024;-74
2022/01/13 10:36:05;;;;;;;19.88;13.18;;;4.10;70.50;;;;;;5074414;28;20024;-74
2022/01/13 10:38:54;;;;;;;20.10;13.05;;;4.20;70.00;;;;;;5056872;28;20162;-74
2022/01/13 10:41:49;;;;;;;19.65;12.30;;;4.20;69.60;;;;;;5074601;28;20457;-74
2022/01/13 10:44:18;;;;;;;18.50;12.38;;;4.30;69.10;;;;;;5074883;28;20124;-74
2022/01/13 10:47:05;;;;;;;21.08;12.50;;;4.30;68.50;;;;;;5074036;28;20476;-75
2022/01/13 10:49:36;;;;;;;17.65;12.10;;;4.40;68.40;;;;;;5074551;28;20063;-74
2022/01/13 10:52:26;;;;;;;19.20;12.15;;;4.40;68.20;;;;;;5074705;28;20120;-75
2022/01/13 10:55:07;;;;;;;17.00;11.75;;;4.60;68.30;;;;;;5054829;28;20504;-74
2022/01/13 10:57:52;;;;;;;;;;;4.60;67.70;;;;;;5075004;28;20108;-73
2022/01/13 11:00:17;;;;;;;16.73;12.05;;;4.80;67.80;;;;;;5074039;28;19904;-75
2022/01/13 11:02:48;;;;;;;17.52;11.77;;;4.80;67.30;;;;;;5073522;28;20034;-74
2022/01/13 11:05:13;;;;;;;20.65;11.77;;;4.90;66.70;;;;;;5074426;28;20042;-74
2022/01/13 11:07:43;;;;;;;16.17;10.98;;;4.80;66.70;;;;;;5073618;28;20469;-74
2022/01/13 11:10:09;;;;;;;21.70;11.48;;;4.70;66.60;;;;;;5073965;28;20051;-75
2022/01/13 11:12:39;;;;;;;19.23;11.10;;;4.70;66.90;;;;;;5073960;28;20020;-72
2022/01/13 11:15:08;;;;;;;17.92;11.82;;;4.70;67.00;;;;;;5074055;28;20111;-75
2022/01/13 11:17:38;;;;;;;17.35;11.68;;;4.60;67.20;;;;;;5074048;28;20469;-75
2022/01/13 11:20:06;;;;;;;20.13;12.75;;;4.60;67.30;;;;;;5073884;28;20465;-75
2022/01/13 11:22:35;;;;;;;18.13;11.95;;;4.50;67.60;;;;;;5073541;28;20488;-75
2022/01/13 11:25:03;;;;;;;18.63;12.80;;;4.50;67.90;;;;;;5073852;28;20469;-75
2022/01/13 11:27:29;;;;;;;17.67;11.45;;;4.50;68.10;;;;;;5073870;28;20070;-75
2022/01/13 11:29:56;;;;;;;20.38;12.38;;;4.50;68.00;;;;;;5073303;28;20100;-74
2022/01/13 11:32:23;;;;;;;16.40;11.02;;;4.50;68.40;;;;;;5073745;28;20032;-74
2022/01/13 11:34:49;;;;;;;14.55;10.80;;;4.50;68.90;;;;;;5055284;28;20404;-74
2022/01/13 11:37:15;;;;;;;15.40;11.05;;;4.50;68.40;;;;;;5055589;28;20456;-75
2022/01/13 11:39:45;;;;;;;15.38;10.73;;;4.60;68.60;;;;;;5073443;28;20033;-74
2022/01/13 11:42:14;;;;;;;17.40;11.20;;;4.60;68.50;;;;;;5073584;28;20024;-74
2022/01/13 11:44:42;;;;;;;17.50;10.43;;;4.60;68.40;;;;;;5072870;28;20253;-74
2022/01/13 11:47:25;;;;;;;14.32;9.85;;;4.60;68.20;;;;;;5055449;28;20421;-74
2022/01/13 11:50:04;;;;;;;13.88;10.43;;;4.70;68.20;;;;;;5072914;28;20031;-74
2022/01/13 11:52:50;;;;;;;12.60;9.38;;;4.70;68.10;;;;;;5073383;28;20028;-74
2022/01/13 11:55:41;;;;;;;15.77;10.02;;;4.70;67.70;;;;;;5072902;28;20454;-75
2022/01/13 11:58:17;;;;;;;14.88;9.75;;;4.80;67.50;;;;;;5073370;28;20025;-75
2022/01/13 12:00:45;;;;;;;14.90;9.80;;;4.80;67.60;;;;;;5072466;28;20024;-74
2022/01/13 12:03:23;;;;;;;17.30;10.07;;;4.80;67.40;;;;;;5073180;28;20028;-74
2022/01/13 12:05:49;;;;;;;17.60;10.15;;;4.80;67.60;;;;;;5072623;28;20485;-75
2022/01/13 12:08:40;;;;;;;12.38;9.43;;;4.90;67.50;;;;;;5072851;28;20021;-76
2022/01/13 12:11:07;;;;;;;14.25;9.70;;;4.90;67.60;;;;;;5073071;28;20040;-76
2022/01/13 12:13:35;;;;;;;18.02;9.80;;;4.90;67.50;;;;;;5073351;28;20460;-76
2022/01/13 12:16:03;;;;;;;15.73;9.95;;;4.90;67.90;;;;;;5072607;28;20021;-75
2022/01/13 12:18:47;;;;;;;15.18;9.93;;;4.90;68.00;;;;;;5055185;28;20390;-76
2022/01/13 12:21:40;;;;;;;15.38;9.48;;;4.90;68.20;;;;;;5072866;28;20024;-75
2022/01/13 12:24:08;;;;;;;20.08;9.77;;;4.80;68.70;;;;;;5072777;28;20120;-75
2022/01/13 12:26:33;;;;;;;14.30;9.52;;;4.80;69.00;;;;;;5072709;28;20035;-75
2022/01/13 12:29:22;;;;;;;14.40;9.48;;;4.80;69.30;;;;;;5072248;28;20025;-74
2022/01/13 12:31:51;;;;;;;14.90;9.55;;;4.80;69.40;;;;;;5071864;28;20385;-75
2022/01/13 12:34:44;;;;;;;15.15;10.63;;;4.80;69.50;;;;;;5072702;28;20111;-75
2022/01/13 12:37:13;;;;;;;12.82;9.57;;;4.80;69.80;;;;;;5072646;28;20021;-75
2022/01/13 12:39:52;;;;;;;17.23;10.38;;;4.80;69.70;;;;;;5072293;28;20427;-74
2022/01/13 12:42:24;;;;;;;15.95;9.55;;;4.80;69.90;;;;;;5072757;28;20028;-74
2022/01/13 12:47:36;;;;;;;15.10;9.88;;;4.80;70.30;;;;;;5072283;28;20070;-74
2022/01/13 12:50:31;;;;;;;15.10;9.75;;;4.70;70.30;;;;;;5071456;28;20416;-74
2022/01/13 12:53:15;;;;;;;14.02;9.18;;;4.80;70.80;;;;;;5070890;28;20044;-74
2022/01/13 12:56:04;;;;;;;14.50;9.52;;;4.80;70.90;;;;;;5072409;28;20094;-75
2022/01/13 12:58:40;;;;;;;13.48;8.63;;;4.80;71.30;;;;;;5071991;28;20032;-75
2022/01/13 13:01:12;;;;;;;14.85;9.80;;;4.80;71.00;;;;;;5071621;28;20032;-74
2022/01/13 13:04:01;;;;;;;13.15;8.98;;;4.80;71.20;;;;;;5072356;28;20078;-74
2022/01/13 13:06:28;;;;;;;13.80;8.43;;;4.80;71.00;;;;;;5072276;28;20517;-74
2022/01/13 13:09:07;;;;;;;14.82;9.25;;;4.90;71.20;;;;;;5071665;28;20475;-76
2022/01/13 13:11:35;;;;;;;15.68;10.10;;;4.90;71.60;;;;;;5072214;28;20060;-74
2022/01/13 13:14:01;;;;;;;17.30;9.40;;;4.90;71.30;;;;;;5071638;28;20025;-74